sensor_id;sensor_type;location;lat;lon;timestamp;P1;durP1;ratioP1;P2;durP2;ratioP2
62951;SDS011;52163;52.212;-1.002;2023-04-03T00:00:02;5.10;;;2.20;;
62951;SDS011;52163;52.212;-1.002;2023-04-03T00:02:29;5.60;;;2.20;;
62951;SDS011;52163;52.212;-1.002;2023-04-03T00:04:55;5.60;;;2.10;;
62951;SDS011;52163;52.212;-1.002;2023-04-03T00:07:21;6.40;;;2.20;;
62951;SDS011;52163;52.212;-1.002;2023-04-03T00:09:46;7.90;;;2.60;;
62951;SDS011;52163;52.212;-1.002;2023-04-03T00:12:11;5.10;;;2.30;;
62951;SDS011;52163;52.212;-1.002;2023-04-03T00:14:37;6.50;;;2.60;;
62951;SDS011;52163;52.212;-1.002;2023-04-03T00:17:02;6.70;;;2.20;;
62951;SDS011;52163;52.212;-1.002;2023-04-03T00:19:28;7.80;;;3.60;;
62951;SDS011;52163;52.212;-1.002;2023-04-03T00:21:53;9.20;;;3.90;;
62951;SDS011;52163;52.212;-1.002;2023-04-03T00:24:19;10.30;;;4.90;;
62951;SDS011;52163;52.212;-1.002;2023-04-03T00:26:44;6.70;;;2.40;;
62951;SDS011;52163;52.212;-1.002;2023-04-03T00:29:10;4.90;;;2.80;;
62951;SDS011;52163;52.212;-1.002;2023-04-03T00:31:35;4.90;;;2.90;;
62951;SDS011;52163;52.212;-1.002;2023-04-03T00:34:00;5.30;;;2.70;;
62951;SDS011;52163;52.212;-1.002;2023-04-03T00:36:26;5.80;;;3.50;;
62951;SDS011;52163;52.212;-1.002;2023-04-03T00:38:51;5.80;;;3.90;;
62951;SDS011;52163;52.212;-1.002;2023-04-03T00:41:19;7.10;;;4.00;;
62951;SDS011;52163;52.212;-1.002;2023-04-03T00:43:46;6.40;;;4.10;;
62951;SDS011;52163;52.212;-1.002;2023-04-03T00:46:11;5.20;;;3.80;;
62951;SDS011;52163;52.212;-1.002;2023-04-03T00:51:08;13.10;;;6.60;;
62951;SDS011;52163;52.212;-1.002;2023-04-03T00:53:38;12.80;;;8.00;;
62951;SDS011;52163;52.212;-1.002;2023-04-03T00:56:25;12.40;;;7.50;;
62951;SDS011;52163;52.212;-1.002;2023-04-03T00:58:54;8.90;;;3.90;;
62951;SDS011;52163;52.212;-1.002;2023-04-03T01:01:25;6.30;;;3.20;;
62951;SDS011;52163;52.212;-1.002;2023-04-03T01:03:53;6.80;;;3.00;;
62951;SDS011;52163;52.212;-1.002;2023-04-03T01:06:29;4.90;;;3.10;;
62951;SDS011;52163;52.212;-1.002;2023-04-03T01:08:57;8.10;;;4.30;;
62951;SDS011;52163;52.212;-1.002;2023-04-03T01:11:24;6.90;;;4.40;;
62951;SDS011;52163;52.212;-1.002;2023-04-03T01:13:50;7.80;;;4.50;;
62951;SDS011;52163;52.212;-1.002;2023-04-03T01:16:15;7.00;;;3.90;;
62951;SDS011;52163;52.212;-1.002;2023-04-03T01:18:41;9.90;;;4.20;;
62951;SDS011;52163;52.212;-1.002;2023-04-03T01:21:11;12.00;;;5.70;;
62951;SDS011;52163;52.212;-1.002;2023-04-03T01:26:43;15.50;;;7.10;;
62951;SDS011;52163;52.212;-1.002;2023-04-03T01:29:09;7.30;;;4.10;;
62951;SDS011;52163;52.212;-1.002;2023-04-03T01:34:15;4.40;;;3.00;;
62951;SDS011;52163;52.212;-1.002;2023-04-03T01:36:40;8.00;;;3.70;;
62951;SDS011;52163;52.212;-1.002;2023-04-03T01:39:06;6.80;;;3.20;;
62951;SDS011;52163;52.212;-1.002;2023-04-03T01:41:32;8.50;;;3.40;;
62951;SDS011;52163;52.212;-1.002;2023-04-03T01:43:57;7.10;;;3.40;;
62951;SDS011;52163;52.212;-1.002;2023-04-03T01:46:23;5.80;;;2.90;;
62951;SDS011;52163;52.212;-1.002;2023-04-03T01:48:48;5.90;;;2.60;;
62951;SDS011;52163;52.212;-1.002;2023-04-03T01:51:14;9.00;;;4.00;;
62951;SDS011;52163;52.212;-1.002;2023-04-03T01:53:40;10.00;;;3.90;;
62951;SDS011;52163;52.212;-1.002;2023-04-03T01:56:08;7.80;;;4.00;;
62951;SDS011;52163;52.212;-1.002;2023-04-03T01:58:34;7.30;;;2.90;;
62951;SDS011;52163;52.212;-1.002;2023-04-03T02:00:59;6.30;;;2.60;;
62951;SDS011;52163;52.212;-1.002;2023-04-03T02:03:25;5.40;;;2.50;;
62951;SDS011;52163;52.212;-1.002;2023-04-03T02:05:51;8.10;;;2.60;;
62951;SDS011;52163;52.212;-1.002;2023-04-03T02:08:17;5.50;;;2.10;;
62951;SDS011;52163;52.212;-1.002;2023-04-03T02:10:43;4.70;;;2.10;;
62951;SDS011;52163;52.212;-1.002;2023-04-03T02:13:10;6.10;;;2.00;;
62951;SDS011;52163;52.212;-1.002;2023-04-03T02:15:37;5.60;;;2.80;;
62951;SDS011;52163;52.212;-1.002;2023-04-03T02:18:04;4.60;;;1.70;;
62951;SDS011;52163;52.212;-1.002;2023-04-03T02:20:30;9.00;;;2.10;;
62951;SDS011;52163;52.212;-1.002;2023-04-03T02:22:55;8.30;;;3.00;;
62951;SDS011;52163;52.212;-1.002;2023-04-03T02:25:21;6.00;;;3.20;;
62951;SDS011;52163;52.212;-1.002;2023-04-03T02:27:46;9.10;;;3.50;;
62951;SDS011;52163;52.212;-1.002;2023-04-03T02:30:12;6.90;;;3.20;;
62951;SDS011;52163;52.212;-1.002;2023-04-03T02:32:39;7.20;;;3.00;;
62951;SDS011;52163;52.212;-1.002;2023-04-03T02:35:06;6.10;;;2.70;;
62951;SDS011;52163;52.212;-1.002;2023-04-03T02:37:32;5.80;;;2.90;;
62951;SDS011;52163;52.212;-1.002;2023-04-03T02:39:57;7.50;;;2.90;;
62951;SDS011;52163;52.212;-1.002;2023-04-03T02:42:23;4.50;;;2.70;;
62951;SDS011;52163;52.212;-1.002;2023-04-03T02:44:49;7.90;;;2.70;;
62951;SDS011;52163;52.212;-1.002;2023-04-03T02:47:14;7.00;;;2.80;;
62951;SDS011;52163;52.212;-1.002;2023-04-03T02:49:40;5.20;;;3.10;;
62951;SDS011;52163;52.212;-1.002;2023-04-03T02:52:05;8.30;;;3.70;;
62951;SDS011;52163;52.212;-1.002;2023-04-03T02:54:30;9.10;;;4.80;;
62951;SDS011;52163;52.212;-1.002;2023-04-03T02:56:56;8.70;;;4.60;;
62951;SDS011;52163;52.212;-1.002;2023-04-03T02:59:23;9.40;;;4.30;;
62951;SDS011;52163;52.212;-1.002;2023-04-03T03:01:48;6.80;;;3.90;;
62951;SDS011;52163;52.212;-1.002;2023-04-03T03:04:14;6.80;;;3.30;;
62951;SDS011;52163;52.212;-1.002;2023-04-03T03:06:39;7.40;;;2.80;;
62951;SDS011;52163;52.212;-1.002;2023-04-03T03:09:05;8.00;;;3.40;;
62951;SDS011;52163;52.212;-1.002;2023-04-03T03:11:31;6.70;;;3.50;;
62951;SDS011;52163;52.212;-1.002;2023-04-03T03:13:57;6.30;;;3.40;;
62951;SDS011;52163;52.212;-1.002;2023-04-03T03:16:23;6.00;;;3.30;;
62951;SDS011;52163;52.212;-1.002;2023-04-03T03:18:48;8.80;;;3.70;;
62951;SDS011;52163;52.212;-1.002;2023-04-03T03:21:13;10.30;;;4.70;;
62951;SDS011;52163;52.212;-1.002;2023-04-03T03:23:39;9.30;;;5.10;;
62951;SDS011;52163;52.212;-1.002;2023-04-03T03:26:06;7.80;;;4.30;;
62951;SDS011;52163;52.212;-1.002;2023-04-03T03:28:34;5.20;;;3.50;;
62951;SDS011;52163;52.212;-1.002;2023-04-03T03:31:01;6.80;;;3.70;;
62951;SDS011;52163;52.212;-1.002;2023-04-03T03:33:27;5.40;;;3.20;;
62951;SDS011;52163;52.212;-1.002;2023-04-03T03:35:53;6.70;;;3.60;;
62951;SDS011;52163;52.212;-1.002;2023-04-03T03:38:19;5.60;;;3.20;;
62951;SDS011;52163;52.212;-1.002;2023-04-03T03:40:46;6.70;;;3.40;;
62951;SDS011;52163;52.212;-1.002;2023-04-03T03:43:13;4.10;;;3.00;;
62951;SDS011;52163;52.212;-1.002;2023-04-03T03:45:39;8.10;;;3.60;;
62951;SDS011;52163;52.212;-1.002;2023-04-03T03:48:05;6.80;;;3.80;;
62951;SDS011;52163;52.212;-1.002;2023-04-03T03:50:30;11.10;;;4.70;;
62951;SDS011;52163;52.212;-1.002;2023-04-03T03:52:56;8.20;;;4.50;;
62951;SDS011;52163;52.212;-1.002;2023-04-03T03:55:21;12.60;;;4.30;;
62951;SDS011;52163;52.212;-1.002;2023-04-03T03:57:46;7.20;;;4.00;;
62951;SDS011;52163;52.212;-1.002;2023-04-03T04:00:12;6.30;;;3.20;;
62951;SDS011;52163;52.212;-1.002;2023-04-03T04:02:38;7.80;;;3.30;;
62951;SDS011;52163;52.212;-1.002;2023-04-03T04:05:04;8.80;;;3.40;;
62951;SDS011;52163;52.212;-1.002;2023-04-03T04:07:31;6.00;;;3.20;;
62951;SDS011;52163;52.212;-1.002;2023-04-03T04:09:56;5.60;;;3.50;;
62951;SDS011;52163;52.212;-1.002;2023-04-03T04:12:21;7.00;;;3.40;;
62951;SDS011;52163;52.212;-1.002;2023-04-03T04:14:47;5.80;;;2.80;;
62951;SDS011;52163;52.212;-1.002;2023-04-03T04:17:13;8.00;;;3.70;;
62951;SDS011;52163;52.212;-1.002;2023-04-03T04:19:39;13.70;;;4.20;;
62951;SDS011;52163;52.212;-1.002;2023-04-03T04:22:04;12.70;;;5.20;;
62951;SDS011;52163;52.212;-1.002;2023-04-03T04:24:30;9.90;;;4.40;;
62951;SDS011;52163;52.212;-1.002;2023-04-03T04:26:55;7.90;;;4.30;;
62951;SDS011;52163;52.212;-1.002;2023-04-03T04:29:20;8.00;;;3.00;;
62951;SDS011;52163;52.212;-1.002;2023-04-03T04:31:46;5.70;;;3.10;;
62951;SDS011;52163;52.212;-1.002;2023-04-03T04:34:11;8.20;;;3.70;;
62951;SDS011;52163;52.212;-1.002;2023-04-03T04:36:38;8.50;;;2.90;;
62951;SDS011;52163;52.212;-1.002;2023-04-03T04:39:04;6.50;;;2.90;;
62951;SDS011;52163;52.212;-1.002;2023-04-03T04:41:30;7.00;;;3.20;;
62951;SDS011;52163;52.212;-1.002;2023-04-03T04:43:56;8.80;;;2.50;;
62951;SDS011;52163;52.212;-1.002;2023-04-03T04:46:22;5.10;;;2.90;;
62951;SDS011;52163;52.212;-1.002;2023-04-03T04:48:48;9.90;;;3.30;;
62951;SDS011;52163;52.212;-1.002;2023-04-03T04:51:13;6.60;;;3.70;;
62951;SDS011;52163;52.212;-1.002;2023-04-03T04:53:40;11.60;;;3.20;;
62951;SDS011;52163;52.212;-1.002;2023-04-03T04:56:07;12.90;;;3.20;;
62951;SDS011;52163;52.212;-1.002;2023-04-03T04:58:33;4.50;;;2.60;;
62951;SDS011;52163;52.212;-1.002;2023-04-03T05:00:59;7.80;;;3.30;;
62951;SDS011;52163;52.212;-1.002;2023-04-03T05:03:28;6.80;;;2.90;;
62951;SDS011;52163;52.212;-1.002;2023-04-03T05:05:54;6.70;;;2.60;;
62951;SDS011;52163;52.212;-1.002;2023-04-03T05:08:19;4.60;;;1.90;;
62951;SDS011;52163;52.212;-1.002;2023-04-03T05:10:45;5.10;;;2.40;;
62951;SDS011;52163;52.212;-1.002;2023-04-03T05:13:11;6.80;;;2.30;;
62951;SDS011;52163;52.212;-1.002;2023-04-03T05:15:37;9.50;;;3.20;;
62951;SDS011;52163;52.212;-1.002;2023-04-03T05:18:03;10.10;;;3.10;;
62951;SDS011;52163;52.212;-1.002;2023-04-03T05:20:30;8.80;;;3.90;;
62951;SDS011;52163;52.212;-1.002;2023-04-03T05:22:55;6.40;;;3.50;;
62951;SDS011;52163;52.212;-1.002;2023-04-03T05:25:20;7.80;;;3.10;;
62951;SDS011;52163;52.212;-1.002;2023-04-03T05:27:46;7.80;;;3.30;;
62951;SDS011;52163;52.212;-1.002;2023-04-03T05:30:12;7.20;;;3.10;;
62951;SDS011;52163;52.212;-1.002;2023-04-03T05:32:40;7.20;;;3.50;;
62951;SDS011;52163;52.212;-1.002;2023-04-03T05:35:07;7.60;;;3.40;;
62951;SDS011;52163;52.212;-1.002;2023-04-03T05:37:34;11.90;;;3.70;;
62951;SDS011;52163;52.212;-1.002;2023-04-03T05:39:59;6.30;;;3.30;;
62951;SDS011;52163;52.212;-1.002;2023-04-03T05:42:25;8.10;;;3.00;;
62951;SDS011;52163;52.212;-1.002;2023-04-03T05:44:51;7.50;;;2.50;;
62951;SDS011;52163;52.212;-1.002;2023-04-03T05:47:17;7.00;;;3.20;;
62951;SDS011;52163;52.212;-1.002;2023-04-03T05:49:43;7.20;;;3.00;;
62951;SDS011;52163;52.212;-1.002;2023-04-03T05:52:23;6.00;;;2.70;;
62951;SDS011;52163;52.212;-1.002;2023-04-03T05:54:51;8.60;;;2.40;;
62951;SDS011;52163;52.212;-1.002;2023-04-03T05:57:17;10.00;;;2.30;;
62951;SDS011;52163;52.212;-1.002;2023-04-03T05:59:43;5.50;;;1.90;;
62951;SDS011;52163;52.212;-1.002;2023-04-03T06:02:14;5.70;;;2.30;;
62951;SDS011;52163;52.212;-1.002;2023-04-03T06:04:41;8.60;;;2.20;;
62951;SDS011;52163;52.212;-1.002;2023-04-03T06:07:06;5.90;;;2.60;;
62951;SDS011;52163;52.212;-1.002;2023-04-03T06:09:35;4.50;;;2.10;;
62951;SDS011;52163;52.212;-1.002;2023-04-03T06:12:01;4.70;;;2.50;;
62951;SDS011;52163;52.212;-1.002;2023-04-03T06:14:26;8.20;;;2.90;;
62951;SDS011;52163;52.212;-1.002;2023-04-03T06:16:52;9.20;;;2.90;;
62951;SDS011;52163;52.212;-1.002;2023-04-03T06:19:19;5.90;;;2.40;;
62951;SDS011;52163;52.212;-1.002;2023-04-03T06:21:45;5.70;;;3.10;;
62951;SDS011;52163;52.212;-1.002;2023-04-03T06:24:12;8.30;;;3.10;;
62951;SDS011;52163;52.212;-1.002;2023-04-03T06:26:40;8.20;;;3.10;;
62951;SDS011;52163;52.212;-1.002;2023-04-03T06:29:05;5.50;;;2.60;;
62951;SDS011;52163;52.212;-1.002;2023-04-03T06:31:31;6.90;;;2.50;;
62951;SDS011;52163;52.212;-1.002;2023-04-03T06:33:56;8.60;;;2.30;;
62951;SDS011;52163;52.212;-1.002;2023-04-03T06:36:22;7.80;;;2.40;;
62951;SDS011;52163;52.212;-1.002;2023-04-03T06:38:47;6.90;;;2.60;;
62951;SDS011;52163;52.212;-1.002;2023-04-03T06:41:14;4.10;;;1.90;;
62951;SDS011;52163;52.212;-1.002;2023-04-03T06:43:41;3.50;;;1.50;;
62951;SDS011;52163;52.212;-1.002;2023-04-03T06:46:12;7.60;;;2.30;;
62951;SDS011;52163;52.212;-1.002;2023-04-03T06:48:40;6.40;;;2.10;;
62951;SDS011;52163;52.212;-1.002;2023-04-03T06:51:06;8.00;;;2.40;;
62951;SDS011;52163;52.212;-1.002;2023-04-03T06:53:31;7.20;;;2.50;;
62951;SDS011;52163;52.212;-1.002;2023-04-03T06:55:57;5.10;;;1.80;;
62951;SDS011;52163;52.212;-1.002;2023-04-03T06:58:22;9.40;;;2.50;;
62951;SDS011;52163;52.212;-1.002;2023-04-03T07:00:47;6.90;;;2.60;;
62951;SDS011;52163;52.212;-1.002;2023-04-03T07:03:13;11.10;;;2.70;;
62951;SDS011;52163;52.212;-1.002;2023-04-03T07:05:38;10.10;;;3.40;;
62951;SDS011;52163;52.212;-1.002;2023-04-03T07:08:04;7.30;;;2.20;;
62951;SDS011;52163;52.212;-1.002;2023-04-03T07:10:29;6.80;;;2.60;;
62951;SDS011;52163;52.212;-1.002;2023-04-03T07:12:54;5.50;;;2.30;;
62951;SDS011;52163;52.212;-1.002;2023-04-03T07:15:20;4.70;;;2.20;;
62951;SDS011;52163;52.212;-1.002;2023-04-03T07:17:45;9.50;;;2.40;;
62951;SDS011;52163;52.212;-1.002;2023-04-03T07:20:11;6.90;;;2.20;;
62951;SDS011;52163;52.212;-1.002;2023-04-03T07:22:36;5.20;;;2.00;;
62951;SDS011;52163;52.212;-1.002;2023-04-03T07:25:03;5.80;;;2.70;;
62951;SDS011;52163;52.212;-1.002;2023-04-03T07:27:29;3.70;;;2.30;;
62951;SDS011;52163;52.212;-1.002;2023-04-03T07:29:54;11.10;;;2.90;;
62951;SDS011;52163;52.212;-1.002;2023-04-03T07:32:21;5.30;;;2.60;;
62951;SDS011;52163;52.212;-1.002;2023-04-03T07:34:46;6.70;;;2.10;;
62951;SDS011;52163;52.212;-1.002;2023-04-03T07:37:12;6.80;;;2.10;;
62951;SDS011;52163;52.212;-1.002;2023-04-03T07:39:37;5.10;;;2.10;;
62951;SDS011;52163;52.212;-1.002;2023-04-03T07:42:03;5.70;;;2.10;;
62951;SDS011;52163;52.212;-1.002;2023-04-03T07:44:28;6.80;;;2.70;;
62951;SDS011;52163;52.212;-1.002;2023-04-03T07:46:54;8.60;;;2.30;;
62951;SDS011;52163;52.212;-1.002;2023-04-03T07:49:22;8.70;;;2.60;;
62951;SDS011;52163;52.212;-1.002;2023-04-03T07:51:49;8.20;;;3.30;;
62951;SDS011;52163;52.212;-1.002;2023-04-03T07:54:15;8.80;;;2.80;;
62951;SDS011;52163;52.212;-1.002;2023-04-03T07:56:40;8.00;;;3.00;;
62951;SDS011;52163;52.212;-1.002;2023-04-03T07:59:08;4.80;;;2.70;;
62951;SDS011;52163;52.212;-1.002;2023-04-03T08:01:34;10.80;;;2.60;;
62951;SDS011;52163;52.212;-1.002;2023-04-03T08:03:59;5.20;;;2.40;;
62951;SDS011;52163;52.212;-1.002;2023-04-03T08:06:25;7.90;;;3.10;;
62951;SDS011;52163;52.212;-1.002;2023-04-03T08:08:51;4.90;;;2.20;;
62951;SDS011;52163;52.212;-1.002;2023-04-03T08:11:17;6.80;;;2.20;;
62951;SDS011;52163;52.212;-1.002;2023-04-03T08:13:43;7.70;;;2.50;;
62951;SDS011;52163;52.212;-1.002;2023-04-03T08:16:10;6.30;;;2.60;;
62951;SDS011;52163;52.212;-1.002;2023-04-03T08:18:37;6.10;;;2.50;;
62951;SDS011;52163;52.212;-1.002;2023-04-03T08:21:10;9.20;;;3.10;;
62951;SDS011;52163;52.212;-1.002;2023-04-03T08:23:37;7.10;;;2.80;;
62951;SDS011;52163;52.212;-1.002;2023-04-03T08:26:22;4.90;;;3.10;;
62951;SDS011;52163;52.212;-1.002;2023-04-03T08:28:48;5.90;;;3.10;;
62951;SDS011;52163;52.212;-1.002;2023-04-03T08:31:15;7.20;;;3.30;;
62951;SDS011;52163;52.212;-1.002;2023-04-03T08:33:44;5.90;;;2.40;;
62951;SDS011;52163;52.212;-1.002;2023-04-03T08:36:22;4.60;;;2.50;;
62951;SDS011;52163;52.212;-1.002;2023-04-03T08:38:51;7.40;;;2.90;;
62951;SDS011;52163;52.212;-1.002;2023-04-03T08:41:33;3.70;;;2.00;;
62951;SDS011;52163;52.212;-1.002;2023-04-03T08:46:30;12.90;;;7.20;;
62951;SDS011;52163;52.212;-1.002;2023-04-03T08:50:02;8.30;;;4.00;;
62951;SDS011;52163;52.212;-1.002;2023-04-03T08:54:52;5.40;;;2.70;;
62951;SDS011;52163;52.212;-1.002;2023-04-03T08:57:30;7.30;;;3.00;;
62951;SDS011;52163;52.212;-1.002;2023-04-03T09:00:03;8.70;;;2.70;;
62951;SDS011;52163;52.212;-1.002;2023-04-03T09:04:58;6.30;;;3.10;;
62951;SDS011;52163;52.212;-1.002;2023-04-03T09:07:36;5.30;;;2.00;;
62951;SDS011;52163;52.212;-1.002;2023-04-03T09:10:08;6.90;;;2.60;;
62951;SDS011;52163;52.212;-1.002;2023-04-03T09:12:38;6.00;;;2.60;;
62951;SDS011;52163;52.212;-1.002;2023-04-03T09:17:41;7.10;;;2.70;;
62951;SDS011;52163;52.212;-1.002;2023-04-03T09:23:43;6.70;;;2.50;;
62951;SDS011;52163;52.212;-1.002;2023-04-03T09:26:19;6.20;;;2.70;;
62951;SDS011;52163;52.212;-1.002;2023-04-03T09:28:51;7.90;;;2.60;;
62951;SDS011;52163;52.212;-1.002;2023-04-03T09:33:47;5.90;;;2.50;;
62951;SDS011;52163;52.212;-1.002;2023-04-03T09:36:36;6.80;;;2.60;;
62951;SDS011;52163;52.212;-1.002;2023-04-03T09:39:07;7.70;;;2.50;;
62951;SDS011;52163;52.212;-1.002;2023-04-03T09:41:37;6.20;;;1.60;;
62951;SDS011;52163;52.212;-1.002;2023-04-03T09:44:03;4.00;;;1.80;;
62951;SDS011;52163;52.212;-1.002;2023-04-03T09:46:46;7.10;;;2.10;;
62951;SDS011;52163;52.212;-1.002;2023-04-03T09:49:12;6.60;;;1.90;;
62951;SDS011;52163;52.212;-1.002;2023-04-03T09:51:38;6.10;;;1.90;;
62951;SDS011;52163;52.212;-1.002;2023-04-03T09:57:07;6.40;;;1.90;;
62951;SDS011;52163;52.212;-1.002;2023-04-03T09:59:36;6.70;;;2.20;;
62951;SDS011;52163;52.212;-1.002;2023-04-03T10:02:37;3.60;;;1.70;;
62951;SDS011;52163;52.212;-1.002;2023-04-03T10:05:05;4.30;;;1.90;;
62951;SDS011;52163;52.212;-1.002;2023-04-03T10:07:52;5.40;;;2.70;;
62951;SDS011;52163;52.212;-1.002;2023-04-03T10:16:20;8.80;;;2.10;;
62951;SDS011;52163;52.212;-1.002;2023-04-03T10:24:25;4.90;;;2.20;;
62951;SDS011;52163;52.212;-1.002;2023-04-03T10:27:13;7.30;;;1.80;;
62951;SDS011;52163;52.212;-1.002;2023-04-03T10:46:23;4.80;;;2.00;;
62951;SDS011;52163;52.212;-1.002;2023-04-03T10:49:01;5.10;;;2.20;;
62951;SDS011;52163;52.212;-1.002;2023-04-03T10:54:49;4.90;;;2.50;;
62951;SDS011;52163;52.212;-1.002;2023-04-03T10:57:16;7.10;;;2.10;;
62951;SDS011;52163;52.212;-1.002;2023-04-03T10:59:47;6.00;;;2.10;;
62951;SDS011;52163;52.212;-1.002;2023-04-03T11:02:27;5.80;;;2.10;;
62951;SDS011;52163;52.212;-1.002;2023-04-03T11:04:59;6.10;;;2.00;;
62951;SDS011;52163;52.212;-1.002;2023-04-03T11:07:37;3.70;;;1.90;;
62951;SDS011;52163;52.212;-1.002;2023-04-03T11:10:51;7.40;;;2.60;;
62951;SDS011;52163;52.212;-1.002;2023-04-03T11:13:08;5.30;;;2.10;;
62951;SDS011;52163;52.212;-1.002;2023-04-03T11:15:41;3.30;;;2.10;;
62951;SDS011;52163;52.212;-1.002;2023-04-03T11:18:14;7.20;;;3.30;;
62951;SDS011;52163;52.212;-1.002;2023-04-03T11:20:46;2.90;;;1.50;;
62951;SDS011;52163;52.212;-1.002;2023-04-03T11:23:24;5.90;;;1.80;;
62951;SDS011;52163;52.212;-1.002;2023-04-03T11:25:51;7.30;;;2.00;;
62951;SDS011;52163;52.212;-1.002;2023-04-03T11:28:20;5.30;;;1.90;;
62951;SDS011;52163;52.212;-1.002;2023-04-03T11:30:47;6.00;;;2.30;;
62951;SDS011;52163;52.212;-1.002;2023-04-03T11:36:23;6.60;;;2.40;;
62951;SDS011;52163;52.212;-1.002;2023-04-03T11:38:53;6.00;;;2.50;;
62951;SDS011;52163;52.212;-1.002;2023-04-03T11:41:26;6.50;;;2.20;;
62951;SDS011;52163;52.212;-1.002;2023-04-03T11:46:22;3.40;;;1.80;;
62951;SDS011;52163;52.212;-1.002;2023-04-03T11:49:49;4.20;;;2.00;;
62951;SDS011;52163;52.212;-1.002;2023-04-03T11:52:12;5.10;;;2.30;;
62951;SDS011;52163;52.212;-1.002;2023-04-03T11:55:00;4.50;;;2.50;;
62951;SDS011;52163;52.212;-1.002;2023-04-03T12:26:46;5.90;;;2.40;;
62951;SDS011;52163;52.212;-1.002;2023-04-03T12:40:43;7.90;;;3.40;;
62951;SDS011;52163;52.212;-1.002;2023-04-03T12:51:14;3.30;;;1.90;;
62951;SDS011;52163;52.212;-1.002;2023-04-03T12:53:42;5.70;;;2.30;;
62951;SDS011;52163;52.212;-1.002;2023-04-03T12:58:50;5.40;;;2.30;;
62951;SDS011;52163;52.212;-1.002;2023-04-03T13:01:19;5.10;;;2.20;;
62951;SDS011;52163;52.212;-1.002;2023-04-03T13:03:49;6.70;;;2.20;;
62951;SDS011;52163;52.212;-1.002;2023-04-03T13:06:18;6.80;;;2.20;;
62951;SDS011;52163;52.212;-1.002;2023-04-03T13:08:51;5.80;;;2.20;;
62951;SDS011;52163;52.212;-1.002;2023-04-03T13:11:26;3.60;;;1.80;;
62951;SDS011;52163;52.212;-1.002;2023-04-03T13:16:22;4.50;;;2.20;;
62951;SDS011;52163;52.212;-1.002;2023-04-03T13:18:52;5.20;;;2.50;;
62951;SDS011;52163;52.212;-1.002;2023-04-03T13:21:20;4.20;;;2.00;;
62951;SDS011;52163;52.212;-1.002;2023-04-03T13:23:51;6.00;;;2.20;;
62951;SDS011;52163;52.212;-1.002;2023-04-03T13:26:20;5.20;;;2.30;;
62951;SDS011;52163;52.212;-1.002;2023-04-03T13:28:48;4.20;;;2.40;;
62951;SDS011;52163;52.212;-1.002;2023-04-03T13:31:19;5.30;;;2.50;;
62951;SDS011;52163;52.212;-1.002;2023-04-03T13:33:53;6.10;;;2.30;;
62951;SDS011;52163;52.212;-1.002;2023-04-03T13:36:22;5.10;;;2.70;;
62951;SDS011;52163;52.212;-1.002;2023-04-03T13:39:02;5.30;;;2.00;;
62951;SDS011;52163;52.212;-1.002;2023-04-03T13:41:50;4.80;;;2.40;;
62951;SDS011;52163;52.212;-1.002;2023-04-03T13:46:54;3.90;;;2.10;;
62951;SDS011;52163;52.212;-1.002;2023-04-03T13:54:58;6.90;;;4.40;;
62951;SDS011;52163;52.212;-1.002;2023-04-03T13:57:26;7.90;;;3.90;;
62951;SDS011;52163;52.212;-1.002;2023-04-03T13:59:52;5.00;;;3.10;;
62951;SDS011;52163;52.212;-1.002;2023-04-03T14:02:19;6.70;;;2.90;;
62951;SDS011;52163;52.212;-1.002;2023-04-03T14:04:56;4.80;;;2.50;;
62951;SDS011;52163;52.212;-1.002;2023-04-03T14:07:25;4.70;;;2.20;;
62951;SDS011;52163;52.212;-1.002;2023-04-03T14:09:51;6.10;;;2.40;;
62951;SDS011;52163;52.212;-1.002;2023-04-03T14:12:31;5.40;;;2.40;;
62951;SDS011;52163;52.212;-1.002;2023-04-03T14:15:01;7.50;;;2.90;;
62951;SDS011;52163;52.212;-1.002;2023-04-03T14:17:29;3.90;;;2.30;;
62951;SDS011;52163;52.212;-1.002;2023-04-03T14:19:56;5.80;;;2.70;;
62951;SDS011;52163;52.212;-1.002;2023-04-03T14:24:51;7.20;;;2.40;;
62951;SDS011;52163;52.212;-1.002;2023-04-03T14:27:21;4.70;;;2.30;;
62951;SDS011;52163;52.212;-1.002;2023-04-03T14:29:52;5.50;;;2.10;;
62951;SDS011;52163;52.212;-1.002;2023-04-03T14:32:19;6.10;;;2.70;;
62951;SDS011;52163;52.212;-1.002;2023-04-03T14:34:47;5.30;;;2.30;;
62951;SDS011;52163;52.212;-1.002;2023-04-03T14:37:15;5.40;;;2.40;;
62951;SDS011;52163;52.212;-1.002;2023-04-03T14:39:43;3.60;;;2.20;;
62951;SDS011;52163;52.212;-1.002;2023-04-03T14:42:14;6.50;;;2.60;;
62951;SDS011;52163;52.212;-1.002;2023-04-03T14:44:42;4.10;;;2.40;;
62951;SDS011;52163;52.212;-1.002;2023-04-03T14:47:15;5.80;;;2.50;;
62951;SDS011;52163;52.212;-1.002;2023-04-03T14:49:43;5.50;;;2.00;;
62951;SDS011;52163;52.212;-1.002;2023-04-03T14:52:16;6.30;;;2.70;;
62951;SDS011;52163;52.212;-1.002;2023-04-03T14:54:45;3.90;;;2.00;;
62951;SDS011;52163;52.212;-1.002;2023-04-03T14:57:11;4.50;;;2.40;;
62951;SDS011;52163;52.212;-1.002;2023-04-03T14:59:39;4.80;;;2.20;;
62951;SDS011;52163;52.212;-1.002;2023-04-03T15:05:08;3.70;;;2.00;;
62951;SDS011;52163;52.212;-1.002;2023-04-03T15:07:42;4.40;;;2.10;;
62951;SDS011;52163;52.212;-1.002;2023-04-03T15:12:40;3.20;;;2.20;;
62951;SDS011;52163;52.212;-1.002;2023-04-03T15:15:06;5.90;;;2.40;;
62951;SDS011;52163;52.212;-1.002;2023-04-03T15:17:33;3.80;;;2.20;;
62951;SDS011;52163;52.212;-1.002;2023-04-03T15:19:59;4.20;;;2.80;;
62951;SDS011;52163;52.212;-1.002;2023-04-03T15:22:26;5.40;;;2.60;;
62951;SDS011;52163;52.212;-1.002;2023-04-03T15:24:51;5.90;;;2.10;;
62951;SDS011;52163;52.212;-1.002;2023-04-03T15:27:17;4.00;;;2.30;;
62951;SDS011;52163;52.212;-1.002;2023-04-03T15:29:43;4.30;;;2.10;;
62951;SDS011;52163;52.212;-1.002;2023-04-03T15:32:10;4.10;;;2.10;;
62951;SDS011;52163;52.212;-1.002;2023-04-03T15:34:36;4.80;;;1.80;;
62951;SDS011;52163;52.212;-1.002;2023-04-03T15:37:02;4.30;;;2.50;;
62951;SDS011;52163;52.212;-1.002;2023-04-03T15:39:27;3.30;;;2.40;;
62951;SDS011;52163;52.212;-1.002;2023-04-03T15:41:53;4.60;;;2.90;;
62951;SDS011;52163;52.212;-1.002;2023-04-03T15:44:20;3.40;;;2.10;;
62951;SDS011;52163;52.212;-1.002;2023-04-03T15:46:46;6.40;;;3.10;;
62951;SDS011;52163;52.212;-1.002;2023-04-03T15:49:17;5.10;;;2.40;;
62951;SDS011;52163;52.212;-1.002;2023-04-03T15:51:44;4.10;;;2.10;;
62951;SDS011;52163;52.212;-1.002;2023-04-03T15:54:10;4.10;;;2.20;;
62951;SDS011;52163;52.212;-1.002;2023-04-03T15:56:36;3.60;;;2.40;;
62951;SDS011;52163;52.212;-1.002;2023-04-03T15:59:01;3.90;;;2.60;;
62951;SDS011;52163;52.212;-1.002;2023-04-03T16:01:27;4.00;;;2.40;;
62951;SDS011;52163;52.212;-1.002;2023-04-03T16:03:52;6.10;;;2.80;;
62951;SDS011;52163;52.212;-1.002;2023-04-03T16:06:18;7.40;;;3.60;;
62951;SDS011;52163;52.212;-1.002;2023-04-03T16:08:44;5.10;;;3.10;;
62951;SDS011;52163;52.212;-1.002;2023-04-03T16:11:12;4.90;;;3.10;;
62951;SDS011;52163;52.212;-1.002;2023-04-03T16:13:38;5.80;;;2.80;;
62951;SDS011;52163;52.212;-1.002;2023-04-03T16:16:03;5.80;;;3.00;;
62951;SDS011;52163;52.212;-1.002;2023-04-03T16:18:29;5.00;;;2.90;;
62951;SDS011;52163;52.212;-1.002;2023-04-03T16:20:55;6.90;;;2.90;;
62951;SDS011;52163;52.212;-1.002;2023-04-03T16:23:21;4.00;;;2.30;;
62951;SDS011;52163;52.212;-1.002;2023-04-03T16:25:47;4.20;;;2.60;;
62951;SDS011;52163;52.212;-1.002;2023-04-03T16:28:15;5.00;;;2.90;;
62951;SDS011;52163;52.212;-1.002;2023-04-03T16:30:42;4.20;;;2.70;;
62951;SDS011;52163;52.212;-1.002;2023-04-03T16:33:12;4.60;;;2.50;;
62951;SDS011;52163;52.212;-1.002;2023-04-03T16:35:38;4.90;;;2.20;;
62951;SDS011;52163;52.212;-1.002;2023-04-03T16:38:04;4.70;;;2.80;;
62951;SDS011;52163;52.212;-1.002;2023-04-03T16:40:30;5.30;;;2.40;;
62951;SDS011;52163;52.212;-1.002;2023-04-03T16:42:58;3.30;;;2.40;;
62951;SDS011;52163;52.212;-1.002;2023-04-03T16:45:24;6.20;;;3.40;;
62951;SDS011;52163;52.212;-1.002;2023-04-03T16:47:49;6.30;;;2.90;;
62951;SDS011;52163;52.212;-1.002;2023-04-03T16:50:15;4.10;;;3.30;;
62951;SDS011;52163;52.212;-1.002;2023-04-03T16:52:41;6.60;;;3.20;;